Time;durP1;ratioP1;P1;durP2;ratioP2;P2;SDS_P1;SDS_P2;PMS_P1;PMS_P2;Temp;Humidity;BMP_temperature;BMP_pressure;BME280_temperature;BME280_humidity;BME280_pressure;Samples;Min_cycle;Max_cycle;Signal;HPM_P1;HPM_P2
2020/12/26 00:01:38;;;;;;;12.30;8.67;;;;;;;3.64;83.48;96998.88;5055139;28;20168;-60
2020/12/26 00:04:04;;;;;;;12.57;8.47;;;;;;;3.67;83.50;96991.56;5055285;28;20168;-60
2020/12/26 00:06:29;;;;;;;15.33;9.80;;;;;;;3.78;83.50;96996.38;5054301;28;20179;-54
2020/12/26 00:08:55;;;;;;;13.27;8.80;;;;;;;3.91;82.60;96998.47;5053757;28;20250;-60
2020/12/26 00:11:21;;;;;;;13.73;8.60;;;;;;;3.88;82.10;96999.59;5054957;28;20252;-60
2020/12/26 00:13:49;;;;;;;15.23;9.00;;;;;;;3.91;82.56;96995.84;5054567;28;20176;-54
2020/12/26 00:16:15;;;;;;;11.30;9.00;;;;;;;4.00;83.02;96987.84;5054942;28;20413;-60
2020/12/26 00:18:41;;;;;;;11.80;8.23;;;;;;;4.01;82.59;96997.28;5054552;28;20510;-60
2020/12/26 00:21:11;;;;;;;15.73;9.47;;;;;;;4.10;82.73;96991.06;5054669;28;20196;-59
2020/12/26 00:23:37;;;;;;;13.47;8.73;;;;;;;4.24;81.66;96988.72;5053035;28;20774;-54
2020/12/26 00:26:02;;;;;;;12.53;8.93;;;;;;;4.30;81.23;96985.41;5055190;28;20478;-54
2020/12/26 00:28:28;;;;;;;13.00;9.30;;;;;;;4.20;80.90;96983.06;5054402;28;20174;-53
2020/12/26 00:30:54;;;;;;;18.43;9.83;;;;;;;4.20;81.45;96983.84;5054349;28;20255;-60
2020/12/26 00:33:19;;;;;;;10.77;9.13;;;;;;;4.23;80.77;96987.91;5054211;28;20736;-53
2020/12/26 00:35:45;;;;;;;13.03;9.30;;;;;;;4.31;80.51;96987.06;5053827;28;20186;-60
2020/12/26 00:38:10;;;;;;;12.53;9.90;;;;;;;4.28;80.43;96987.38;5054082;28;20179;-60
2020/12/26 00:40:35;;;;;;;10.23;8.77;;;;;;;4.28;80.21;96997.78;5054248;28;20568;-54
2020/12/26 00:43:01;;;;;;;10.87;8.20;;;;;;;4.26;79.83;96995.34;5053804;28;20179;-60
2020/12/26 00:45:27;;;;;;;14.03;9.10;;;;;;;4.22;79.80;97001.09;5053816;28;20205;-60
2020/12/26 00:47:52;;;;;;;15.77;9.20;;;;;;;4.10;79.74;96995.44;5054048;28;20410;-60
2020/12/26 00:50:17;;;;;;;13.50;9.43;;;;;;;4.07;80.55;97000.97;5053296;28;20620;-54
2020/12/26 00:52:43;;;;;;;14.47;8.57;;;;;;;4.10;80.04;96995.44;5054131;28;20196;-54
2020/12/26 00:55:08;;;;;;;10.80;8.27;;;;;;;4.08;80.11;97003.41;5054600;28;20491;-53
2020/12/26 00:57:34;;;;;;;14.97;8.37;;;;;;;4.05;80.67;97002.94;5053931;28;20183;-60
2020/12/26 00:59:59;;;;;;;10.30;8.63;;;;;;;4.08;80.05;97002.59;5054107;28;20660;-60
2020/12/26 01:02:25;;;;;;;12.60;8.43;;;;;;;4.01;80.46;97009.44;5054117;28;20185;-60
2020/12/26 01:04:50;;;;;;;9.97;7.53;;;;;;;3.98;80.09;97010.63;5052453;28;20203;-60
2020/12/26 01:07:16;;;;;;;14.00;8.37;;;;;;;3.96;80.41;97014.34;5053132;28;20188;-54
2020/12/26 01:09:41;;;;;;;10.53;7.10;;;;;;;3.92;80.28;97016.47;5053754;28;20203;-60
2020/12/26 01:12:06;;;;;;;10.60;7.30;;;;;;;3.93;80.08;97022.50;5053790;28;20246;-53
2020/12/26 01:14:32;;;;;;;11.13;7.90;;;;;;;3.87;80.52;97017.94;5053522;28;20210;-60
2020/12/26 01:16:58;;;;;;;10.70;7.83;;;;;;;3.87;80.22;97016.19;5053453;28;20628;-53
2020/12/26 01:19:23;;;;;;;10.90;7.90;;;;;;;3.70;80.13;97018.97;5053427;28;20204;-53
2020/12/26 01:21:50;;;;;;;9.83;7.27;;;;;;;3.68;81.04;97019.13;5053308;28;20315;-60
2020/12/26 01:24:16;;;;;;;15.93;9.20;;;;;;;3.58;81.19;97022.91;5052300;28;20171;-60
2020/12/26 01:26:45;;;;;;;14.73;8.70;;;;;;;3.62;80.92;97024.19;5052734;28;20466;-54
2020/12/26 01:29:10;;;;;;;11.63;7.63;;;;;;;3.58;80.27;97034.13;5053544;28;20438;-53
2020/12/26 01:31:36;;;;;;;9.10;7.47;;;;;;;3.57;80.71;97040.28;5053187;28;20458;-60
2020/12/26 01:34:01;;;;;;;14.50;9.20;;;;;;;3.52;80.98;97039.13;5053564;28;20228;-54
2020/12/26 01:36:26;;;;;;;16.33;9.10;;;;;;;3.49;81.59;97036.88;5053213;28;20230;-60
2020/12/26 01:38:53;;;;;;;13.50;8.60;;;;;;;3.46;81.98;97040.59;5053020;28;20172;-60
2020/12/26 01:41:18;;;;;;;15.70;9.23;;;;;;;3.51;81.91;97040.94;5053076;28;20187;-53
2020/12/26 01:44:13;;;;;;;12.43;9.50;;;;;;;3.56;81.51;97048.22;5053507;28;20761;-61
2020/12/26 01:46:38;;;;;;;18.37;9.77;;;;;;;3.51;81.23;97053.94;5039455;28;20193;-54
2020/12/26 01:49:03;;;;;;;14.67;9.97;;;;;;;3.19;82.93;97055.75;5053291;28;20413;-54
2020/12/26 01:51:31;;;;;;;15.40;10.70;;;;;;;3.13;83.32;97059.78;5053661;28;20203;-60
2020/12/26 01:53:57;;;;;;;16.70;10.07;;;;;;;2.89;85.06;97059.78;5052894;28;20173;-54
2020/12/26 01:56:24;;;;;;;13.10;9.63;;;;;;;3.05;84.49;97064.97;5051866;28;20419;-55
2020/12/26 01:58:50;;;;;;;19.93;10.90;;;;;;;3.08;83.98;97064.63;5053169;28;20441;-54
2020/12/26 02:01:15;;;;;;;21.10;10.60;;;;;;;3.03;84.81;97075.50;5052616;28;20852;-54
2020/12/26 02:03:41;;;;;;;16.10;11.03;;;;;;;2.89;85.28;97083.13;5053580;28;20176;-60
2020/12/26 02:06:07;;;;;;;17.47;10.10;;;;;;;3.01;85.08;97077.47;5053285;28;20534;-60
2020/12/26 02:08:34;;;;;;;17.50;9.93;;;;;;;3.09;85.38;97081.84;5052758;28;20526;-53
2020/12/26 02:11:01;;;;;;;15.50;10.40;;;;;;;3.08;85.10;97091.41;5052594;28;20456;-60
2020/12/26 02:13:26;;;;;;;16.30;9.67;;;;;;;3.20;85.08;97078.13;5053125;28;20449;-60
2020/12/26 02:16:06;;;;;;;15.07;9.57;;;;;;;3.31;83.96;97089.00;5052539;28;20430;-54
2020/12/26 02:18:32;;;;;;;14.90;9.37;;;;;;;3.39;83.51;97085.59;5052623;28;20187;-53
2020/12/26 02:20:58;;;;;;;13.87;10.60;;;;;;;3.43;83.25;97081.69;5052790;28;20431;-53
2020/12/26 02:23:25;;;;;;;16.50;10.30;;;;;;;3.48;82.87;97084.63;5052803;28;20413;-60
2020/12/26 02:25:50;;;;;;;15.40;9.43;;;;;;;3.41;83.12;97081.03;5052493;28;20424;-60
2020/12/26 02:28:16;;;;;;;15.80;10.87;;;;;;;3.39;83.37;97077.81;5052102;28;20434;-54
2020/12/26 02:30:41;;;;;;;15.10;9.53;;;;;;;3.27;84.18;97074.72;5052691;28;20696;-60
2020/12/26 02:33:07;;;;;;;20.47;10.50;;;;;;;3.15;84.75;97081.22;5053114;28;20203;-53
2020/12/26 02:35:32;;;;;;;15.53;10.03;;;;;;;3.26;84.55;97074.88;5052728;28;20180;-60
2020/12/26 02:37:57;;;;;;;17.80;10.43;;;;;;;3.26;84.63;97083.50;5052453;28;20538;-60
2020/12/26 02:40:22;;;;;;;16.90;10.60;;;;;;;3.21;84.32;97085.75;5052579;28;20227;-60
2020/12/26 02:42:48;;;;;;;15.50;9.03;;;;;;;3.13;84.96;97080.56;5052285;28;20184;-60
2020/12/26 02:45:13;;;;;;;20.00;10.10;;;;;;;3.06;85.20;97077.00;5052525;28;20191;-60
2020/12/26 02:47:39;;;;;;;18.07;10.23;;;;;;;2.99;85.86;97075.97;5052373;28;20173;-60
2020/12/26 02:50:04;;;;;;;14.63;10.50;;;;;;;2.97;85.77;97083.94;5052402;28;20285;-60
2020/12/26 02:52:30;;;;;;;19.77;10.80;;;;;;;3.00;86.22;97072.44;5052682;28;20200;-60
2020/12/26 02:54:55;;;;;;;13.63;9.97;;;;;;;2.85;86.12;97079.22;5052007;28;20175;-54
2020/12/26 02:57:20;;;;;;;14.90;9.73;;;;;;;2.82;86.27;97088.16;5052184;28;20182;-53
2020/12/26 02:59:46;;;;;;;16.77;9.20;;;;;;;2.65;87.29;97088.25;5052700;28;20278;-54
2020/12/26 03:02:11;;;;;;;23.20;10.80;;;;;;;2.82;86.52;97093.34;5052309;28;20256;-60
2020/12/26 03:04:36;;;;;;;13.10;9.93;;;;;;;2.92;86.33;97091.41;5052079;28;20233;-60
2020/12/26 03:07:02;;;;;;;14.77;9.10;;;;;;;2.98;86.18;97085.56;5054118;28;20655;-54
2020/12/26 03:09:27;;;;;;;13.37;8.47;;;;;;;3.03;85.72;97083.31;5056215;28;20538;-60
2020/12/26 03:11:52;;;;;;;15.60;8.60;;;;;;;3.14;84.91;97084.75;5055673;28;20199;-60
2020/12/26 03:14:18;;;;;;;14.60;9.00;;;;;;;3.06;84.96;97077.00;5055952;28;20172;-54
2020/12/26 03:16:43;;;;;;;17.47;9.83;;;;;;;3.17;84.51;97078.44;5055614;28;20175;-60
2020/12/26 03:19:08;;;;;;;14.27;9.70;;;;;;;3.11;84.34;97080.72;5056144;28;20195;-60
2020/12/26 03:21:34;;;;;;;16.77;9.47;;;;;;;3.19;83.67;97086.91;5055016;28;20183;-60
2020/12/26 03:23:59;;;;;;;20.03;10.43;;;;;;;3.17;83.85;97087.84;5056031;28;20180;-60
2020/12/26 03:26:24;;;;;;;14.90;9.50;;;;;;;3.17;83.96;97090.44;5055680;28;20182;-54
2020/12/26 03:28:50;;;;;;;16.63;9.03;;;;;;;3.31;83.66;97085.59;5055586;28;20507;-60
2020/12/26 03:31:15;;;;;;;15.90;10.20;;;;;;;3.24;83.22;97082.84;5056117;28;20174;-54
2020/12/26 03:33:41;;;;;;;16.33;10.93;;;;;;;3.28;83.08;97091.91;5055695;28;20507;-60
2020/12/26 03:36:06;;;;;;;11.27;7.80;;;;;;;3.25;82.55;97099.22;5055413;28;20172;-60
2020/12/26 03:38:31;;;;;;;11.50;8.90;;;;;;;3.27;82.37;97100.69;5055355;28;20275;-60
2020/12/26 03:40:57;;;;;;;16.83;10.20;;;;;;;3.22;82.54;97102.97;5054188;28;20683;-53
2020/12/26 03:43:22;;;;;;;16.20;9.33;;;;;;;3.30;82.61;97104.75;5055283;28;20172;-54
2020/12/26 03:45:47;;;;;;;15.10;8.90;;;;;;;3.28;82.26;97107.47;5056134;28;20174;-53
2020/12/26 03:48:13;;;;;;;13.67;8.27;;;;;;;3.28;82.43;97106.69;5055176;28;20180;-54
2020/12/26 03:50:38;;;;;;;13.37;9.20;;;;;;;3.33;82.08;97107.84;5055384;28;20195;-60
2020/12/26 03:53:03;;;;;;;16.20;8.40;;;;;;;3.28;82.38;97111.88;5055443;28;20196;-60
2020/12/26 03:55:29;;;;;;;12.73;8.40;;;;;;;3.24;82.64;97098.41;5055202;28;20655;-60
2020/12/26 03:57:54;;;;;;;13.60;8.37;;;;;;;3.29;82.38;97110.91;5054358;28;20180;-57
2020/12/26 04:00:19;;;;;;;12.90;8.97;;;;;;;3.31;82.16;97116.75;5054897;28;20340;-60
2020/12/26 04:02:45;;;;;;;12.23;8.17;;;;;;;3.25;82.25;97113.00;5055120;28;20195;-60
2020/12/26 04:05:10;;;;;;;14.33;8.53;;;;;;;3.17;82.43;97110.38;5055092;28;20179;-54
2020/12/26 04:07:35;;;;;;;11.93;7.30;;;;;;;3.27;82.04;97115.44;5054929;28;20176;-60
2020/12/26 04:10:01;;;;;;;15.30;8.93;;;;;;;3.23;81.42;97106.34;5055113;28;20666;-54
2020/12/26 04:12:26;;;;;;;11.33;9.10;;;;;;;3.12;82.39;97110.06;5054751;28;20199;-59
2020/12/26 04:14:51;;;;;;;16.20;8.90;;;;;;;3.10;83.24;97107.63;5054538;28;20267;-60
2020/12/26 04:17:17;;;;;;;13.77;8.97;;;;;;;3.04;83.36;97112.66;5053814;28;20175;-60
2020/12/26 04:19:42;;;;;;;15.20;9.57;;;;;;;2.98;83.96;97124.50;5053882;28;20583;-60
2020/12/26 04:22:08;;;;;;;15.40;9.50;;;;;;;3.11;83.48;97117.06;5046368;28;20203;-53
2020/12/26 04:24:33;;;;;;;14.80;9.80;;;;;;;3.09;83.36;97113.81;5034891;28;20212;-60
2020/12/26 04:26:58;;;;;;;12.63;8.70;;;;;;;3.04;83.71;97120.47;5048788;28;20171;-60
2020/12/26 04:29:24;;;;;;;15.40;8.77;;;;;;;2.85;84.47;97121.56;5054416;28;20629;-54
2020/12/26 04:31:50;;;;;;;15.33;9.27;;;;;;;2.96;84.35;97121.25;5053222;28;20203;-54
2020/12/26 04:34:15;;;;;;;14.73;10.20;;;;;;;3.02;84.30;97115.44;5054758;28;20194;-54
2020/12/26 04:36:41;;;;;;;19.60;10.20;;;;;;;3.09;83.88;97113.00;5054179;28;20935;-60
2020/12/26 04:39:06;;;;;;;17.17;9.70;;;;;;;3.16;83.78;97121.75;5054524;28;20244;-60
2020/12/26 04:41:32;;;;;;;13.83;9.73;;;;;;;3.15;83.69;97113.16;5054204;28;20281;-54
2020/12/26 04:44:00;;;;;;;11.83;8.63;;;;;;;3.17;83.49;97119.00;5053734;28;20584;-60
2020/12/26 04:46:27;;;;;;;13.97;10.07;;;;;;;3.21;83.16;97122.09;5053824;28;20220;-59
2020/12/26 04:49:01;;;;;;;13.97;9.20;;;;;;;3.28;83.14;97136.03;5053922;28;20510;-60
2020/12/26 04:51:30;;;;;;;19.67;10.90;;;;;;;3.27;83.36;97118.84;5054149;28;20478;-60
2020/12/26 04:54:04;;;;;;;17.27;10.97;;;;;;;3.19;83.54;97125.84;5054053;28;20411;-53
2020/12/26 04:56:38;;;;;;;20.40;9.80;;;;;;;3.27;83.70;97126.66;5053493;28;20422;-54
2020/12/26 04:59:04;;;;;;;13.70;8.77;;;;;;;3.29;83.29;97124.69;5054145;28;20447;-60
2020/12/26 05:01:35;;;;;;;17.50;10.97;;;;;;;3.17;83.63;97126.78;5053973;28;20405;-60
2020/12/26 05:04:00;;;;;;;18.83;10.70;;;;;;;3.04;84.23;97128.25;5054169;28;20174;-60
2020/12/26 05:06:26;;;;;;;20.40;11.07;;;;;;;2.71;85.38;97131.72;5053550;28;20402;-60
2020/12/26 05:08:52;;;;;;;18.43;11.13;;;;;;;2.76;86.47;97134.66;5053429;28;20169;-60
2020/12/26 05:11:20;;;;;;;22.30;11.80;;;;;;;2.90;86.00;97140.03;5053506;28;20507;-54
2020/12/26 05:13:45;;;;;;;19.60;12.00;;;;;;;2.91;86.22;97141.69;5053995;28;20258;-60
2020/12/26 05:16:11;;;;;;;23.13;11.47;;;;;;;2.90;86.31;97140.03;5053848;28;20896;-60
2020/12/26 05:18:38;;;;;;;22.87;12.37;;;;;;;2.88;86.72;97144.56;5053564;28;20183;-53
2020/12/26 05:21:03;;;;;;;19.57;12.10;;;;;;;2.88;86.40;97141.97;5051925;28;20542;-60
2020/12/26 05:23:29;;;;;;;17.37;11.57;;;;;;;2.87;86.49;97136.94;5053441;28;20481;-54
2020/12/26 05:25:54;;;;;;;21.80;10.60;;;;;;;2.91;86.35;97141.69;5053474;28;20183;-54
2020/12/26 05:28:22;;;;;;;18.57;12.30;;;;;;;2.98;86.12;97132.28;5053258;28;20252;-60
2020/12/26 05:30:52;;;;;;;22.83;11.83;;;;;;;2.92;86.66;97138.09;5053278;28;20287;-54
2020/12/26 05:33:18;;;;;;;20.17;12.17;;;;;;;3.00;85.73;97139.91;5053748;28;20541;-60
2020/12/26 05:35:45;;;;;;;16.43;12.10;;;;;;;3.13;85.70;97140.25;5053590;28;20407;-60
2020/12/26 05:38:16;;;;;;;20.97;12.70;;;;;;;3.17;85.97;97130.38;5052709;28;20413;-60
2020/12/26 05:40:43;;;;;;;28.10;12.77;;;;;;;3.25;85.14;97130.34;5053139;28;20441;-60
2020/12/26 05:43:10;;;;;;;18.73;11.33;;;;;;;3.35;85.02;97134.44;5053404;28;20415;-54
2020/12/26 05:45:39;;;;;;;20.73;12.50;;;;;;;3.35;84.48;97129.25;5053541;28;20411;-54
2020/12/26 05:48:16;;;;;;;21.50;12.13;;;;;;;3.24;85.06;97131.34;5052410;28;20763;-53
2020/12/26 05:50:42;;;;;;;20.07;12.40;;;;;;;3.34;84.88;97130.22;5053107;28;20432;-60
2020/12/26 05:53:09;;;;;;;22.13;13.60;;;;;;;3.15;84.99;97138.31;5053113;28;20546;-54
2020/12/26 05:55:46;;;;;;;23.20;12.50;;;;;;;3.09;85.03;97131.97;5053133;28;20428;-60
2020/12/26 05:58:12;;;;;;;22.00;13.10;;;;;;;3.06;86.37;97139.28;5052888;28;20490;-60
2020/12/26 06:00:40;;;;;;;19.23;12.23;;;;;;;3.21;85.48;97129.09;5052979;28;20913;-54
2020/12/26 06:03:30;;;;;;;19.87;12.07;;;;;;;3.15;84.90;97133.13;5053216;28;20778;-54
2020/12/26 06:05:56;;;;;;;17.13;11.50;;;;;;;3.28;84.53;97133.44;5052988;28;20406;-54
2020/12/26 06:08:23;;;;;;;21.10;12.50;;;;;;;3.16;84.39;97134.75;5052790;28;20882;-61
2020/12/26 06:11:04;;;;;;;18.90;11.33;;;;;;;2.94;84.60;97130.97;5052734;28;20453;-60
2020/12/26 06:13:31;;;;;;;18.70;11.30;;;;;;;2.89;85.07;97128.06;5052878;28;20494;-61
2020/12/26 06:16:08;;;;;;;24.43;11.97;;;;;;;2.76;85.16;97127.69;5052952;28;20415;-60
2020/12/26 06:18:38;;;;;;;15.83;10.87;;;;;;;2.75;85.42;97133.84;5052139;28;20411;-54
2020/12/26 06:21:04;;;;;;;19.77;11.13;;;;;;;2.94;84.88;97148.31;5053041;28;20562;-60
2020/12/26 06:23:30;;;;;;;16.50;11.27;;;;;;;2.79;84.45;97149.91;5052989;28;20437;-60
2020/12/26 06:25:56;;;;;;;20.47;12.27;;;;;;;2.75;85.04;97151.19;5052580;28;20181;-60
2020/12/26 06:28:30;;;;;;;19.37;12.13;;;;;;;2.63;85.03;97140.28;5052311;28;20411;-60
2020/12/26 06:31:04;;;;;;;19.13;10.87;;;;;;;2.65;84.64;97142.72;5052908;28;20512;-60
2020/12/26 06:33:36;;;;;;;20.70;10.87;;;;;;;2.57;84.86;97137.53;5052875;28;20459;-54
2020/12/26 06:36:04;;;;;;;16.27;10.33;;;;;;;2.23;85.38;97140.13;5052259;28;20425;-60
2020/12/26 06:38:29;;;;;;;21.73;11.50;;;;;;;2.12;87.36;97137.00;5052395;28;20407;-60
2020/12/26 06:40:55;;;;;;;18.03;10.67;;;;;;;1.77;87.69;97149.09;5052826;28;20780;-58
2020/12/26 06:43:39;;;;;;;16.80;11.50;;;;;;;1.84;88.05;97150.09;5056405;28;20175;-61
2020/12/26 06:46:07;;;;;;;15.90;10.77;;;;;;;1.60;89.80;97149.94;5056740;28;20171;-60
2020/12/26 06:48:37;;;;;;;15.17;10.53;;;;;;;1.46;90.73;97155.66;5055725;28;20410;-54
2020/12/26 06:51:21;;;;;;;22.47;11.13;;;;;;;1.53;89.55;97151.50;5054862;28;20501;-60
2020/12/26 06:53:46;;;;;;;20.90;11.50;;;;;;;1.66;89.84;97151.94;5056677;28;20500;-53
2020/12/26 06:56:31;;;;;;;27.10;14.13;;;;;;;1.57;89.45;97152.81;5056803;28;20493;-60
2020/12/26 06:58:57;;;;;;;18.47;13.17;;;;;;;1.69;88.84;97149.03;5055953;28;20256;-60
2020/12/26 07:01:23;;;;;;;19.03;11.10;;;;;;;1.69;89.27;97155.97;5054969;28;20441;-54
2020/12/26 07:04:12;;;;;;;26.57;12.90;;;;;;;1.58;88.92;97151.84;5055715;28;20531;-54
2020/12/26 07:06:41;;;;;;;95.10;39.77;;;;;;;1.51;90.10;97152.59;5055924;28;20452;-60
2020/12/26 07:09:08;;;;;;;61.47;33.07;;;;;;;1.63;89.45;97156.59;5056401;28;20409;-54
2020/12/26 07:11:46;;;;;;;33.43;18.00;;;;;;;1.66;89.31;97164.06;5056208;28;20406;-61
2020/12/26 07:14:37;;;;;;;93.20;48.63;;;;;;;1.89;88.41;97167.78;5056276;28;20474;-60
2020/12/26 07:17:14;;;;;;;32.80;19.73;;;;;;;1.91;88.16;97174.44;5055638;28;20920;-60
2020/12/26 07:19:43;;;;;;;23.73;16.17;;;;;;;1.80;88.39;97176.44;5055619;28;20498;-60
2020/12/26 07:22:35;;;;;;;18.03;10.30;;;;;;;2.03;88.12;97170.63;5055672;28;20784;-60
2020/12/26 07:25:04;;;;;;;17.77;9.70;;;;;;;2.04;87.15;97174.03;5055390;28;20414;-60
2020/12/26 07:27:31;;;;;;;13.33;9.40;;;;;;;2.07;87.53;97177.13;5055444;28;20775;-54
2020/12/26 07:30:00;;;;;;;12.30;7.30;;;;;;;1.98;86.86;97183.22;5055493;28;21038;-53
2020/12/26 07:32:45;;;;;;;13.60;8.60;;;;;;;2.33;86.86;97173.69;5055453;28;20451;-54
2020/12/26 07:35:15;;;;;;;14.40;10.47;;;;;;;2.38;85.79;97171.44;5055597;28;20434;-54
2020/12/26 07:37:46;;;;;;;15.47;9.70;;;;;;;2.51;84.88;97164.06;5055073;28;20909;-60
2020/12/26 07:40:17;;;;;;;12.87;9.90;;;;;;;2.41;85.24;97174.53;5055366;28;20943;-54
2020/12/26 07:42:44;;;;;;;15.50;9.67;;;;;;;2.45;84.87;97169.88;5055262;28;20476;-54
2020/12/26 07:45:21;;;;;;;12.80;9.77;;;;;;;2.42;85.82;97165.00;5055663;28;20484;-60
2020/12/26 07:47:49;;;;;;;15.70;8.83;;;;;;;2.73;84.33;97166.09;5055195;28;20414;-54
2020/12/26 07:50:16;;;;;;;13.87;9.33;;;;;;;2.75;83.95;97161.56;5055225;28;20435;-61
2020/12/26 07:52:46;;;;;;;15.10;9.70;;;;;;;2.96;83.99;97159.34;5054815;28;20813;-54
2020/12/26 07:55:11;;;;;;;12.57;9.10;;;;;;;3.15;82.91;97159.88;5055475;28;20407;-53
2020/12/26 07:57:37;;;;;;;12.13;9.10;;;;;;;3.21;82.35;97150.63;5054652;28;20453;-54
2020/12/26 08:00:03;;;;;;;16.07;10.07;;;;;;;3.39;82.15;97150.53;5055087;28;20273;-54
2020/12/26 08:02:29;;;;;;;14.73;9.60;;;;;;;3.49;81.53;97146.78;5055405;28;20406;-54
2020/12/26 08:04:54;;;;;;;11.90;8.63;;;;;;;3.53;81.78;97139.47;5054850;28;20760;-60
2020/12/26 08:07:19;;;;;;;16.80;9.97;;;;;;;3.68;81.45;97143.84;5054491;28;20199;-60
2020/12/26 08:09:52;;;;;;;14.53;10.57;;;;;;;3.88;80.92;97152.09;5054670;28;20259;-60
2020/12/26 08:12:18;;;;;;;11.87;8.87;;;;;;;3.92;80.30;97154.22;5049145;28;20223;-61
2020/12/26 08:14:44;;;;;;;17.37;10.60;;;;;;;3.97;80.08;97151.94;5055011;28;20409;-60
2020/12/26 08:17:11;;;;;;;13.47;8.73;;;;;;;4.12;79.11;97152.91;5054113;28;20434;-60
2020/12/26 08:19:37;;;;;;;12.60;8.87;;;;;;;4.17;79.22;97150.59;5054848;28;20437;-54
2020/12/26 08:22:03;;;;;;;14.20;9.20;;;;;;;4.22;78.99;97149.28;5054899;28;20410;-53
2020/12/26 08:24:29;;;;;;;12.87;9.40;;;;;;;4.28;79.14;97144.22;5054360;28;20427;-59
2020/12/26 08:26:56;;;;;;;14.00;8.93;;;;;;;4.34;77.79;97142.75;5054440;28;20476;-62
2020/12/26 08:29:32;;;;;;;14.20;9.73;;;;;;;4.25;78.67;97147.16;5054329;28;20475;-61
2020/12/26 08:32:09;;;;;;;12.87;9.70;;;;;;;4.14;78.12;97145.75;5053882;28;20596;-56
2020/12/26 08:34:46;;;;;;;11.57;8.40;;;;;;;3.96;78.71;97134.72;5054675;28;20407;-62
2020/12/26 08:37:20;;;;;;;13.40;8.40;;;;;;;3.69;78.13;97145.47;5054251;28;20921;-56
2020/12/26 08:39:45;;;;;;;13.40;9.40;;;;;;;3.62;78.77;97146.28;5053839;28;20867;-61
2020/12/26 08:42:19;;;;;;;18.30;11.43;;;;;;;3.38;80.24;97143.69;5054239;28;20454;-61
2020/12/26 08:44:45;;;;;;;14.37;9.80;;;;;;;3.30;80.37;97144.47;5052833;28;20268;-62
2020/12/26 08:47:10;;;;;;;10.80;8.50;;;;;;;2.89;82.04;97154.00;5054004;28;20495;-62
2020/12/26 08:49:44;;;;;;;13.43;8.93;;;;;;;3.24;81.67;97150.34;5054105;28;20600;-62
2020/12/26 08:52:09;;;;;;;11.07;8.90;;;;;;;3.38;81.16;97154.06;5054490;28;20653;-62
2020/12/26 08:54:34;;;;;;;10.57;8.47;;;;;;;3.53;80.28;97149.88;5053828;28;20426;-62
2020/12/26 08:57:00;;;;;;;11.60;8.07;;;;;;;3.10;80.96;97153.53;5053864;28;20510;-62
2020/12/26 08:59:29;;;;;;;10.53;7.80;;;;;;;3.24;82.21;97158.13;5053647;28;20683;-56
2020/12/26 09:01:55;;;;;;;10.07;7.30;;;;;;;3.13;81.92;97161.03;5053730;28;20173;-62
2020/12/26 09:04:22;;;;;;;9.80;7.53;;;;;;;3.32;81.72;97163.31;5053621;28;20448;-62
2020/12/26 09:06:47;;;;;;;13.60;8.47;;;;;;;3.20;82.33;97154.22;5052865;28;20427;-62
2020/12/26 09:09:20;;;;;;;13.93;8.83;;;;;;;3.16;81.92;97160.69;5053782;28;20491;-56
2020/12/26 09:12:06;;;;;;;10.13;7.10;;;;;;;2.59;84.23;97145.97;5053790;28;20282;-62
2020/12/26 09:14:31;;;;;;;9.40;7.17;;;;;;;2.63;84.26;97163.63;5053405;28;20422;-56
2020/12/26 09:17:01;;;;;;;9.63;6.80;;;;;;;2.66;84.69;97167.69;5053334;28;20418;-62
2020/12/26 09:19:40;;;;;;;11.27;7.47;;;;;;;2.59;85.12;97171.91;5053376;28;20215;-62
2020/12/26 09:22:07;;;;;;;8.10;6.80;;;;;;;2.45;86.34;97167.28;5053152;28;20426;-62
2020/12/26 09:24:33;;;;;;;10.33;7.90;;;;;;;2.60;86.37;97176.09;5053533;28;20479;-55
2020/12/26 09:26:58;;;;;;;12.83;8.07;;;;;;;2.63;85.96;97184.38;5053299;28;20406;-62
2020/12/26 09:29:24;;;;;;;11.20;7.50;;;;;;;2.87;85.50;97191.44;5053572;28;20191;-55
2020/12/26 09:31:50;;;;;;;9.93;7.93;;;;;;;2.71;86.23;97187.00;5053588;28;20274;-55
2020/12/26 09:34:18;;;;;;;9.30;7.53;;;;;;;2.92;85.70;97189.19;5052760;28;20877;-54
2020/12/26 09:36:45;;;;;;;9.83;6.87;;;;;;;2.80;85.58;97200.81;5053289;28;20402;-62
2020/12/26 09:39:10;;;;;;;10.20;7.77;;;;;;;2.63;86.80;97194.75;5053039;28;20862;-62
2020/12/26 09:41:43;;;;;;;7.53;6.83;;;;;;;2.77;86.27;97201.16;5053516;28;20481;-62
2020/12/26 09:44:09;;;;;;;11.43;6.60;;;;;;;2.56;86.02;97203.31;5053550;28;20219;-62
2020/12/26 09:46:34;;;;;;;7.90;6.70;;;;;;;2.68;85.99;97196.91;5052908;28;20972;-55
2020/12/26 09:49:00;;;;;;;12.33;6.60;;;;;;;2.67;86.58;97205.63;5053041;28;20600;-55
2020/12/26 09:51:25;;;;;;;10.13;8.30;;;;;;;2.95;85.65;97199.25;5053339;28;20200;-56
2020/12/26 09:53:50;;;;;;;9.17;7.07;;;;;;;3.03;85.01;97189.72;5052661;28;20209;-61
2020/12/26 09:56:16;;;;;;;9.33;7.17;;;;;;;2.92;85.06;97200.38;5052724;28;20254;-59
2020/12/26 09:58:44;;;;;;;9.57;6.40;;;;;;;2.99;85.38;97195.34;5052877;28;20188;-62
2020/12/26 10:01:17;;;;;;;10.00;6.83;;;;;;;2.93;85.29;97198.59;5053120;28;20844;-55
2020/12/26 10:03:43;;;;;;;7.70;6.90;;;;;;;2.84;86.07;97202.97;5053314;28;20470;-61
2020/12/26 10:06:16;;;;;;;7.90;6.83;;;;;;;2.82;87.01;97193.69;5052627;28;20515;-55
2020/12/26 10:08:43;;;;;;;8.43;6.33;;;;;;;2.90;85.96;97184.16;5053111;28;20542;-61
2020/12/26 10:11:12;;;;;;;8.67;6.40;;;;;;;3.04;85.13;97183.53;5053159;28;20790;-61
2020/12/26 10:13:38;;;;;;;8.73;6.90;;;;;;;3.15;84.71;97188.44;5052286;28;20465;-55
2020/12/26 10:16:04;;;;;;;10.83;6.90;;;;;;;3.14;84.44;97186.81;5053657;28;20407;-61
2020/12/26 10:18:29;;;;;;;9.83;5.90;;;;;;;3.03;84.74;97186.28;5056646;28;20175;-55
2020/12/26 10:20:54;;;;;;;9.53;6.80;;;;;;;3.05;84.56;97192.13;5057110;28;20199;-61
2020/12/26 10:23:20;;;;;;;7.43;6.27;;;;;;;3.24;84.01;97185.88;5057079;28;20203;-63
2020/12/26 10:25:45;;;;;;;9.67;7.07;;;;;;;3.39;83.71;97189.47;5057022;28;20198;-62
2020/12/26 10:28:11;;;;;;;10.37;7.50;;;;;;;3.56;83.16;97188.50;5056266;28;20181;-62
2020/12/26 10:30:36;;;;;;;11.13;6.60;;;;;;;3.41;82.54;97190.09;5057208;28;20188;-56
2020/12/26 10:33:01;;;;;;;9.13;6.17;;;;;;;3.72;81.52;97186.72;5056150;28;20729;-55
2020/12/26 10:35:27;;;;;;;6.90;6.30;;;;;;;3.63;81.28;97184.28;5056816;28;20175;-61
2020/12/26 10:37:52;;;;;;;9.77;7.20;;;;;;;3.76;81.05;97184.59;5057431;28;20185;-56
2020/12/26 10:40:18;;;;;;;8.40;6.97;;;;;;;3.68;80.98;97176.81;5075775;28;20213;-60
2020/12/26 10:42:43;;;;;;;17.63;16.23;;;;;;;3.63;81.12;97169.50;5056460;28;20636;-56
2020/12/26 10:45:08;;;;;;;6.90;6.20;;;;;;;3.69;80.28;97163.66;5056469;28;20289;-56
2020/12/26 10:47:34;;;;;;;6.13;5.50;;;;;;;3.78;79.55;97167.88;5056134;28;20221;-61
2020/12/26 10:49:59;;;;;;;7.93;7.23;;;;;;;4.17;77.80;97161.00;5057005;28;20220;-61
2020/12/26 10:52:25;;;;;;;11.53;7.23;;;;;;;3.96;77.70;97165.91;5069052;28;20202;-62
2020/12/26 10:54:51;;;;;;;9.30;6.50;;;;;;;3.89;79.59;97169.34;5056036;28;20186;-54
2020/12/26 10:57:16;;;;;;;7.97;7.27;;;;;;;3.94;78.50;97156.66;5055286;28;20182;-56
2020/12/26 10:59:42;;;;;;;9.20;7.30;;;;;;;3.96;79.16;97154.72;5056083;28;20784;-55
2020/12/26 11:02:07;;;;;;;9.30;5.87;;;;;;;4.10;79.47;97149.66;5056085;28;20169;-55
2020/12/26 11:04:33;;;;;;;7.80;6.27;;;;;;;4.18;77.67;97154.03;5055841;28;20250;-60
2020/12/26 11:06:58;;;;;;;7.97;6.23;;;;;;;4.29;78.15;97151.06;5055602;28;20514;-62
2020/12/26 11:09:23;;;;;;;7.53;6.00;;;;;;;4.34;77.53;97138.38;5055606;28;20749;-56
2020/12/26 11:11:51;;;;;;;8.63;6.50;;;;;;;4.25;76.63;97138.56;5055600;28;20189;-56
2020/12/26 11:14:17;;;;;;;9.17;6.00;;;;;;;4.22;76.87;97136.28;5055378;28;20179;-55
2020/12/26 11:16:49;;;;;;;9.37;6.97;;;;;;;4.43;77.46;97123.53;5055601;28;20911;-56
2020/12/26 11:19:16;;;;;;;7.37;6.60;;;;;;;4.74;76.76;97134.78;5053378;28;20453;-56
2020/12/26 11:21:42;;;;;;;13.23;6.53;;;;;;;4.63;75.72;97122.16;5052103;28;20434;-57
2020/12/26 11:24:08;;;;;;;8.27;5.53;;;;;;;4.48;75.25;97118.63;5052441;28;20422;-60
2020/12/26 11:26:33;;;;;;;7.97;5.60;;;;;;;4.66;75.27;97121.81;5051318;28;20175;-60
2020/12/26 11:28:59;;;;;;;7.23;6.00;;;;;;;4.53;75.82;97117.16;5051531;28;20496;-56
2020/12/26 11:31:25;;;;;;;9.60;6.27;;;;;;;5.13;74.99;97109.50;5046013;28;20687;-57
2020/12/26 11:33:51;;;;;;;7.33;6.17;;;;;;;5.02;73.46;97120.31;5032355;28;20253;-55